sensor_id;sensor_type;location;lat;lon;timestamp;pressure;altitude;pressure_sealevel;temperature;humidity
40850;BME280;26571;41.610;25.380;2023-01-19T00:00:25;97629.88;;;14.03;96.97
40850;BME280;26571;41.610;25.380;2023-01-19T00:02:50;97629.66;;;14.04;96.78
40850;BME280;26571;41.610;25.380;2023-01-19T00:05:16;97610.19;;;13.79;97.23
40850;BME280;26571;41.610;25.380;2023-01-19T00:07:41;97630.09;;;13.94;97.24
40850;BME280;26571;41.610;25.380;2023-01-19T00:10:08;97656.53;;;14.08;96.98
40850;BME280;26571;41.610;25.380;2023-01-19T00:12:34;97654.88;;;14.07;96.82
40850;BME280;26571;41.610;25.380;2023-01-19T00:15:00;97653.88;;;14.08;96.81
40850;BME280;26571;41.610;25.380;2023-01-19T00:17:26;97645.50;;;14.11;96.26
40850;BME280;26571;41.610;25.380;2023-01-19T00:19:51;97651.59;;;14.11;96.45
40850;BME280;26571;41.610;25.380;2023-01-19T00:22:17;97630.84;;;14.15;96.11
40850;BME280;26571;41.610;25.380;2023-01-19T00:24:42;97649.19;;;14.10;95.77
40850;BME280;26571;41.610;25.380;2023-01-19T00:27:09;97637.38;;;14.06;96.37
40850;BME280;26571;41.610;25.380;2023-01-19T00:29:34;97629.66;;;14.04;96.47
40850;BME280;26571;41.610;25.380;2023-01-19T00:32:01;97640.66;;;14.08;96.18
40850;BME280;26571;41.610;25.380;2023-01-19T00:34:26;97643.09;;;14.03;96.13
40850;BME280;26571;41.610;25.380;2023-01-19T00:37:03;97638.63;;;14.03;96.60
40850;BME280;26571;41.610;25.380;2023-01-19T00:39:28;97653.06;;;14.01;96.88
40850;BME280;26571;41.610;25.380;2023-01-19T00:41:54;97656.75;;;14.00;96.79
40850;BME280;26571;41.610;25.380;2023-01-19T00:44:39;97660.59;;;14.04;96.56
40850;BME280;26571;41.610;25.380;2023-01-19T00:47:05;97662.22;;;14.05;96.43
40850;BME280;26571;41.610;25.380;2023-01-19T00:49:30;97633.34;;;13.90;96.29
40850;BME280;26571;41.610;25.380;2023-01-19T00:51:56;97663.03;;;14.05;96.09
40850;BME280;26571;41.610;25.380;2023-01-19T00:54:21;97662.22;;;14.05;95.73
40850;BME280;26571;41.610;25.380;2023-01-19T00:56:47;97668.53;;;14.04;95.57
40850;BME280;26571;41.610;25.380;2023-01-19T00:59:12;97613.03;;;13.70;95.58
40850;BME280;26571;41.610;25.380;2023-01-19T01:01:37;97637.00;;;13.95;95.68
40850;BME280;26571;41.610;25.380;2023-01-19T01:04:03;97671.56;;;14.14;94.15
40850;BME280;26571;41.610;25.380;2023-01-19T01:06:28;97671.97;;;14.11;94.55
40850;BME280;26571;41.610;25.380;2023-01-19T01:08:54;97667.31;;;14.13;94.39
40850;BME280;26571;41.610;25.380;2023-01-19T01:11:19;97665.66;;;14.12;94.29
40850;BME280;26571;41.610;25.380;2023-01-19T01:13:45;97685.41;;;14.16;93.92
40850;BME280;26571;41.610;25.380;2023-01-19T01:16:10;97667.91;;;14.15;93.69
40850;BME280;26571;41.610;25.380;2023-01-19T01:18:35;97665.84;;;14.17;93.67
40850;BME280;26571;41.610;25.380;2023-01-19T01:21:03;97645.97;;;13.94;93.67
40850;BME280;26571;41.610;25.380;2023-01-19T01:23:29;97678.69;;;14.20;93.36
40850;BME280;26571;41.610;25.380;2023-01-19T01:25:54;97683.34;;;14.25;92.83
40850;BME280;26571;41.610;25.380;2023-01-19T01:28:20;97672.94;;;14.30;92.16
40850;BME280;26571;41.610;25.380;2023-01-19T01:30:45;97686.59;;;14.33;91.81
40850;BME280;26571;41.610;25.380;2023-01-19T01:33:11;97688.63;;;14.38;91.18
40850;BME280;26571;41.610;25.380;2023-01-19T01:35:36;97694.50;;;14.40;91.43
40850;BME280;26571;41.610;25.380;2023-01-19T01:38:02;97686.97;;;14.37;91.02
40850;BME280;26571;41.610;25.380;2023-01-19T01:40:28;97684.72;;;14.40;90.86
40850;BME280;26571;41.610;25.380;2023-01-19T01:42:53;97689.44;;;14.38;90.35
40850;BME280;26571;41.610;25.380;2023-01-19T01:45:24;97680.22;;;14.41;90.80
40850;BME280;26571;41.610;25.380;2023-01-19T01:47:53;97676.78;;;14.40;90.99
40850;BME280;26571;41.610;25.380;2023-01-19T01:50:24;97683.09;;;14.39;91.12
40850;BME280;26571;41.610;25.380;2023-01-19T01:55:21;97680.44;;;14.39;90.08
40850;BME280;26571;41.610;25.380;2023-01-19T01:57:53;97668.09;;;14.07;89.79
40850;BME280;26571;41.610;25.380;2023-01-19T02:00:22;97671.47;;;14.40;89.93
40850;BME280;26571;41.610;25.380;2023-01-19T02:02:48;97671.47;;;14.40;89.57
40850;BME280;26571;41.610;25.380;2023-01-19T02:05:27;97686.16;;;14.43;88.99
40850;BME280;26571;41.610;25.380;2023-01-19T02:10:43;97677.41;;;14.42;88.69
40850;BME280;26571;41.610;25.380;2023-01-19T02:13:33;97682.50;;;14.37;89.39
40850;BME280;26571;41.610;25.380;2023-01-19T02:16:02;97655.25;;;14.23;89.14
40850;BME280;26571;41.610;25.380;2023-01-19T02:18:31;97679.44;;;14.40;88.40
40850;BME280;26571;41.610;25.380;2023-01-19T02:21:10;97691.84;;;14.40;89.34
40850;BME280;26571;41.610;25.380;2023-01-19T02:26:10;97691.84;;;14.40;89.10
40850;BME280;26571;41.610;25.380;2023-01-19T02:28:40;97660.53;;;14.30;89.59
40850;BME280;26571;41.610;25.380;2023-01-19T02:31:06;97684.50;;;14.42;89.69
40850;BME280;26571;41.610;25.380;2023-01-19T02:33:31;97654.00;;;14.26;90.16
40850;BME280;26571;41.610;25.380;2023-01-19T02:35:57;97679.25;;;14.35;89.74
40850;BME280;26571;41.610;25.380;2023-01-19T02:38:26;97684.53;;;14.35;90.16
40850;BME280;26571;41.610;25.380;2023-01-19T02:40:54;97690.25;;;14.32;90.33
40850;BME280;26571;41.610;25.380;2023-01-19T02:43:22;97677.03;;;14.32;90.19
40850;BME280;26571;41.610;25.380;2023-01-19T02:45:48;97672.34;;;14.28;91.42
40850;BME280;26571;41.610;25.380;2023-01-19T02:48:15;97682.94;;;14.28;90.95
40850;BME280;26571;41.610;25.380;2023-01-19T02:50:44;97692.50;;;14.29;91.00
40850;BME280;26571;41.610;25.380;2023-01-19T02:56:28;97685.38;;;14.29;90.64
40850;BME280;26571;41.610;25.380;2023-01-19T03:09:34;97717.94;;;14.36;89.82
40850;BME280;26571;41.610;25.380;2023-01-19T03:12:26;97720.75;;;14.41;88.86
40850;BME280;26571;41.610;25.380;2023-01-19T03:14:59;97718.75;;;14.43;88.69
40850;BME280;26571;41.610;25.380;2023-01-19T03:17:27;97705.91;;;14.40;89.03
40850;BME280;26571;41.610;25.380;2023-01-19T03:19:55;97722.41;;;14.42;88.70
40850;BME280;26571;41.610;25.380;2023-01-19T03:22:25;97716.09;;;14.50;88.19
40850;BME280;26571;41.610;25.380;2023-01-19T03:24:54;97701.44;;;14.47;88.23
40850;BME280;26571;41.610;25.380;2023-01-19T03:27:25;97702.84;;;14.43;88.13
40850;BME280;26571;41.610;25.380;2023-01-19T03:29:59;97699.19;;;14.44;88.20
40850;BME280;26571;41.610;25.380;2023-01-19T03:32:31;97747.47;;;14.40;88.47
40850;BME280;26571;41.610;25.380;2023-01-19T03:35:02;97709.59;;;14.39;88.18
40850;BME280;26571;41.610;25.380;2023-01-19T03:37:30;97714.47;;;14.42;88.02
40850;BME280;26571;41.610;25.380;2023-01-19T03:39:57;97711.81;;;14.36;88.24
40850;BME280;26571;41.610;25.380;2023-01-19T03:42:24;97671.59;;;14.07;88.67
40850;BME280;26571;41.610;25.380;2023-01-19T03:44:50;97721.44;;;14.23;88.70
40850;BME280;26571;41.610;25.380;2023-01-19T03:47:20;97711.41;;;14.39;88.47
40850;BME280;26571;41.610;25.380;2023-01-19T03:49:46;97689.66;;;14.17;88.25
40850;BME280;26571;41.610;25.380;2023-01-19T03:52:13;97565.28;;;13.32;88.55
40850;BME280;26571;41.610;25.380;2023-01-19T03:54:39;97731.78;;;14.38;88.91
40850;BME280;26571;41.610;25.380;2023-01-19T03:57:05;97732.81;;;14.37;89.08
40850;BME280;26571;41.610;25.380;2023-01-19T03:59:31;97740.94;;;14.42;88.99
40850;BME280;26571;41.610;25.380;2023-01-19T04:01:57;97733.22;;;14.34;88.62
40850;BME280;26571;41.610;25.380;2023-01-19T04:04:22;97735.47;;;14.37;89.02
40850;BME280;26571;41.610;25.380;2023-01-19T04:06:49;97727.34;;;14.32;88.78
40850;BME280;26571;41.610;25.380;2023-01-19T04:09:15;97768.25;;;14.43;88.24
40850;BME280;26571;41.610;25.380;2023-01-19T04:11:40;97734.81;;;14.42;88.44
40850;BME280;26571;41.610;25.380;2023-01-19T04:14:06;97751.13;;;14.45;88.02
40850;BME280;26571;41.610;25.380;2023-01-19T04:16:31;97748.69;;;14.44;87.98
40850;BME280;26571;41.610;25.380;2023-01-19T04:18:56;97759.06;;;14.45;87.78
40850;BME280;26571;41.610;25.380;2023-01-19T04:21:22;97741.56;;;14.38;88.50
40850;BME280;26571;41.610;25.380;2023-01-19T04:23:47;97758.25;;;14.45;88.33
40850;BME280;26571;41.610;25.380;2023-01-19T04:26:14;97745.25;;;14.23;88.42
40850;BME280;26571;41.610;25.380;2023-01-19T04:28:39;97750.94;;;14.47;88.36
40850;BME280;26571;41.610;25.380;2023-01-19T04:31:05;97744.41;;;14.36;88.42
40850;BME280;26571;41.610;25.380;2023-01-19T04:33:31;97750.31;;;14.45;88.49
40850;BME280;26571;41.610;25.380;2023-01-19T04:35:57;97753.34;;;14.42;88.53
40850;BME280;26571;41.610;25.380;2023-01-19T04:38:24;97697.66;;;13.97;88.81
40850;BME280;26571;41.610;25.380;2023-01-19T04:40:51;97760.69;;;14.46;88.13
40850;BME280;26571;41.610;25.380;2023-01-19T04:43:18;97773.31;;;14.44;88.29
40850;BME280;26571;41.610;25.380;2023-01-19T04:45:44;97767.81;;;14.46;88.16
40850;BME280;26571;41.610;25.380;2023-01-19T04:48:11;97762.72;;;14.44;87.60
40850;BME280;26571;41.610;25.380;2023-01-19T04:50:36;97779.88;;;14.48;87.60
40850;BME280;26571;41.610;25.380;2023-01-19T04:53:02;97785.75;;;14.44;88.21
40850;BME280;26571;41.610;25.380;2023-01-19T04:55:27;97783.75;;;14.53;87.52
40850;BME280;26571;41.610;25.380;2023-01-19T04:57:53;97778.63;;;14.58;87.13
40850;BME280;26571;41.610;25.380;2023-01-19T05:00:19;97787.16;;;14.60;87.36
40850;BME280;26571;41.610;25.380;2023-01-19T05:02:45;97782.28;;;14.57;87.34
40850;BME280;26571;41.610;25.380;2023-01-19T05:05:11;97784.34;;;14.55;87.42
40850;BME280;26571;41.610;25.380;2023-01-19T05:07:37;97781.88;;;14.46;87.71
40850;BME280;26571;41.610;25.380;2023-01-19T05:10:03;97796.78;;;14.47;88.19
40850;BME280;26571;41.610;25.380;2023-01-19T05:12:29;97785.56;;;14.52;87.68
40850;BME280;26571;41.610;25.380;2023-01-19T05:14:54;97790.66;;;14.54;86.97
40850;BME280;26571;41.610;25.380;2023-01-19T05:17:19;97801.00;;;14.62;86.86
40850;BME280;26571;41.610;25.380;2023-01-19T05:19:45;97768.44;;;14.55;86.49
40850;BME280;26571;41.610;25.380;2023-01-19T05:22:12;97773.75;;;14.55;86.23
40850;BME280;26571;41.610;25.380;2023-01-19T05:24:38;97790.03;;;14.52;86.48
40850;BME280;26571;41.610;25.380;2023-01-19T05:27:03;97778.00;;;14.56;86.07
40850;BME280;26571;41.610;25.380;2023-01-19T05:29:28;97790.84;;;14.59;85.31
40850;BME280;26571;41.610;25.380;2023-01-19T05:31:54;97786.38;;;14.53;85.39
40850;BME280;26571;41.610;25.380;2023-01-19T05:34:19;97726.91;;;14.22;85.14
40850;BME280;26571;41.610;25.380;2023-01-19T05:36:44;97793.31;;;14.54;85.02
40850;BME280;26571;41.610;25.380;2023-01-19T05:39:10;97770.50;;;14.53;84.83
40850;BME280;26571;41.610;25.380;2023-01-19T05:41:35;97772.31;;;14.45;85.16
40850;BME280;26571;41.610;25.380;2023-01-19T05:44:01;97783.09;;;14.44;85.81
40850;BME280;26571;41.610;25.380;2023-01-19T05:46:26;97746.47;;;14.28;85.53
40850;BME280;26571;41.610;25.380;2023-01-19T05:48:52;97788.84;;;14.47;85.73
40850;BME280;26571;41.610;25.380;2023-01-19T05:51:17;97779.44;;;14.52;84.81
40850;BME280;26571;41.610;25.380;2023-01-19T05:53:43;97790.47;;;14.48;84.43
40850;BME280;26571;41.610;25.380;2023-01-19T05:56:09;97797.97;;;14.45;85.18
40850;BME280;26571;41.610;25.380;2023-01-19T05:58:36;97793.28;;;14.40;85.16
40850;BME280;26571;41.610;25.380;2023-01-19T06:01:04;97819.78;;;14.54;84.65
40850;BME280;26571;41.610;25.380;2023-01-19T06:03:32;97805.72;;;14.60;84.98
40850;BME280;26571;41.610;25.380;2023-01-19T06:05:58;97790.03;;;14.38;84.44
40850;BME280;26571;41.610;25.380;2023-01-19T06:08:24;97822.00;;;14.57;84.72
40850;BME280;26571;41.610;25.380;2023-01-19T06:10:50;97829.56;;;14.60;84.71
40850;BME280;26571;41.610;25.380;2023-01-19T06:13:16;97841.38;;;14.64;84.27
40850;BME280;26571;41.610;25.380;2023-01-19T06:15:42;97831.38;;;14.72;84.55
40850;BME280;26571;41.610;25.380;2023-01-19T06:18:09;97842.34;;;14.89;83.54
40850;BME280;26571;41.610;25.380;2023-01-19T06:20:35;97841.50;;;14.95;83.54
40850;BME280;26571;41.610;25.380;2023-01-19T06:23:00;97834.34;;;15.03;83.10
40850;BME280;26571;41.610;25.380;2023-01-19T06:25:26;97811.13;;;14.91;83.09
40850;BME280;26571;41.610;25.380;2023-01-19T06:27:51;97806.66;;;14.92;82.77
40850;BME280;26571;41.610;25.380;2023-01-19T06:30:17;97826.03;;;14.92;82.74
40850;BME280;26571;41.610;25.380;2023-01-19T06:32:43;97828.69;;;14.92;82.78
40850;BME280;26571;41.610;25.380;2023-01-19T06:35:08;97828.06;;;14.97;83.03
40850;BME280;26571;41.610;25.380;2023-01-19T06:37:34;97829.44;;;14.99;82.58
40850;BME280;26571;41.610;25.380;2023-01-19T06:40:00;97860.22;;;15.00;82.00
40850;BME280;26571;41.610;25.380;2023-01-19T06:42:25;97841.28;;;15.04;81.71
40850;BME280;26571;41.610;25.380;2023-01-19T06:44:51;97839.41;;;15.11;81.80
40850;BME280;26571;41.610;25.380;2023-01-19T06:47:16;97853.03;;;15.21;81.52
40850;BME280;26571;41.610;25.380;2023-01-19T06:49:42;97842.63;;;15.19;80.64
40850;BME280;26571;41.610;25.380;2023-01-19T06:52:09;97836.00;;;14.97;81.40
40850;BME280;26571;41.610;25.380;2023-01-19T06:54:35;97857.97;;;15.17;80.54
40850;BME280;26571;41.610;25.380;2023-01-19T06:57:01;97859.22;;;15.08;80.90
40850;BME280;26571;41.610;25.380;2023-01-19T06:59:27;97873.19;;;15.29;80.95
40850;BME280;26571;41.610;25.380;2023-01-19T07:01:52;97860.72;;;15.36;80.15
40850;BME280;26571;41.610;25.380;2023-01-19T07:04:18;97879.19;;;15.62;79.18
40850;BME280;26571;41.610;25.380;2023-01-19T07:06:43;97876.97;;;15.91;76.89
40850;BME280;26571;41.610;25.380;2023-01-19T07:09:08;97887.97;;;16.26;74.56
40850;BME280;26571;41.610;25.380;2023-01-19T07:11:37;97887.81;;;16.46;72.62
40850;BME280;26571;41.610;25.380;2023-01-19T07:14:03;97897.00;;;16.75;70.77
40850;BME280;26571;41.610;25.380;2023-01-19T07:16:28;97900.13;;;16.90;70.91
40850;BME280;26571;41.610;25.380;2023-01-19T07:18:54;97902.09;;;17.01;70.54
40850;BME280;26571;41.610;25.380;2023-01-19T07:21:20;97907.34;;;17.26;69.53
40850;BME280;26571;41.610;25.380;2023-01-19T07:23:50;97896.91;;;17.43;68.91
40850;BME280;26571;41.610;25.380;2023-01-19T07:26:16;97866.97;;;17.29;68.23
40850;BME280;26571;41.610;25.380;2023-01-19T07:28:46;97910.97;;;17.50;68.87
40850;BME280;26571;41.610;25.380;2023-01-19T07:31:11;97910.41;;;17.78;67.84
40850;BME280;26571;41.610;25.380;2023-01-19T07:33:37;97923.00;;;18.01;67.34
40850;BME280;26571;41.610;25.380;2023-01-19T07:36:02;97922.50;;;18.23;66.18
40850;BME280;26571;41.610;25.380;2023-01-19T07:38:28;97932.28;;;18.41;64.81
40850;BME280;26571;41.610;25.380;2023-01-19T07:41:04;97918.88;;;18.05;66.32
40850;BME280;26571;41.610;25.380;2023-01-19T07:43:30;97918.22;;;18.22;65.94
40850;BME280;26571;41.610;25.380;2023-01-19T07:46:01;97864.41;;;18.01;64.87
40850;BME280;26571;41.610;25.380;2023-01-19T07:48:26;97865.28;;;17.83;65.07
40850;BME280;26571;41.610;25.380;2023-01-19T07:50:52;97904.34;;;18.43;64.85
40850;BME280;26571;41.610;25.380;2023-01-19T07:53:19;97909.28;;;18.70;63.38
40850;BME280;26571;41.610;25.380;2023-01-19T07:55:44;97896.38;;;18.55;64.31
40850;BME280;26571;41.610;25.380;2023-01-19T07:58:10;97908.22;;;18.94;63.48
40850;BME280;26571;41.610;25.380;2023-01-19T08:00:37;97904.06;;;19.10;61.63
40850;BME280;26571;41.610;25.380;2023-01-19T08:03:04;97899.31;;;19.00;62.02
40850;BME280;26571;41.610;25.380;2023-01-19T08:05:30;97901.75;;;18.90;63.22
40850;BME280;26571;41.610;25.380;2023-01-19T08:07:57;97909.84;;;18.83;63.66
40850;BME280;26571;41.610;25.380;2023-01-19T08:10:24;97891.19;;;18.72;63.19
40850;BME280;26571;41.610;25.380;2023-01-19T08:12:54;97898.44;;;18.41;64.65
40850;BME280;26571;41.610;25.380;2023-01-19T08:15:20;97888.38;;;18.01;65.98
40850;BME280;26571;41.610;25.380;2023-01-19T08:17:59;97895.91;;;18.04;65.68
40850;BME280;26571;41.610;25.380;2023-01-19T08:20:27;97890.31;;;17.94;65.83
40850;BME280;26571;41.610;25.380;2023-01-19T08:22:52;97913.16;;;18.02;65.98
40850;BME280;26571;41.610;25.380;2023-01-19T08:25:36;97900.34;;;18.11;65.34
40850;BME280;26571;41.610;25.380;2023-01-19T08:28:04;97910.22;;;18.22;65.26
40850;BME280;26571;41.610;25.380;2023-01-19T08:30:30;97895.72;;;18.18;65.08
40850;BME280;26571;41.610;25.380;2023-01-19T08:32:56;97908.91;;;18.13;65.66
40850;BME280;26571;41.610;25.380;2023-01-19T08:35:29;97895.19;;;17.97;65.86
40850;BME280;26571;41.610;25.380;2023-01-19T08:37:54;97892.78;;;18.07;64.95
40850;BME280;26571;41.610;25.380;2023-01-19T08:40:20;97892.41;;;17.92;65.28
40850;BME280;26571;41.610;25.380;2023-01-19T08:42:46;97868.94;;;18.01;64.99
40850;BME280;26571;41.610;25.380;2023-01-19T08:45:12;97868.38;;;18.11;64.08
40850;BME280;26571;41.610;25.380;2023-01-19T08:47:37;97886.63;;;17.47;66.22
40850;BME280;26571;41.610;25.380;2023-01-19T08:50:03;97872.69;;;16.96;68.50
40850;BME280;26571;41.610;25.380;2023-01-19T08:52:28;97885.59;;;16.68;70.58
40850;BME280;26571;41.610;25.380;2023-01-19T08:54:54;97875.53;;;16.51;70.98
40850;BME280;26571;41.610;25.380;2023-01-19T08:57:20;97883.13;;;16.23;73.16
40850;BME280;26571;41.610;25.380;2023-01-19T08:59:45;97874.53;;;16.21;72.61
40850;BME280;26571;41.610;25.380;2023-01-19T09:02:11;97869.78;;;16.29;72.69
40850;BME280;26571;41.610;25.380;2023-01-19T09:04:37;97891.56;;;16.38;73.38
40850;BME280;26571;41.610;25.380;2023-01-19T09:07:02;97891.91;;;16.48;73.29
40850;BME280;26571;41.610;25.380;2023-01-19T09:09:28;97876.00;;;16.67;72.25
40850;BME280;26571;41.610;25.380;2023-01-19T09:11:53;97770.47;;;16.06;71.62
40850;BME280;26571;41.610;25.380;2023-01-19T09:14:19;97895.94;;;17.01;70.26
40850;BME280;26571;41.610;25.380;2023-01-19T09:16:45;97904.88;;;17.43;68.80
40850;BME280;26571;41.610;25.380;2023-01-19T09:19:11;97877.88;;;17.58;68.22
40850;BME280;26571;41.610;25.380;2023-01-19T09:21:38;97869.09;;;17.57;68.06
40850;BME280;26571;41.610;25.380;2023-01-19T09:24:03;97877.66;;;17.78;66.14
40850;BME280;26571;41.610;25.380;2023-01-19T09:26:29;97868.72;;;17.54;65.32
40850;BME280;26571;41.610;25.380;2023-01-19T09:28:55;97871.41;;;16.99;66.59
40850;BME280;26571;41.610;25.380;2023-01-19T09:31:21;97876.19;;;16.90;67.86
40850;BME280;26571;41.610;25.380;2023-01-19T09:33:47;97876.09;;;17.22;67.77
40850;BME280;26571;41.610;25.380;2023-01-19T09:36:13;97863.72;;;17.27;66.52
40850;BME280;26571;41.610;25.380;2023-01-19T09:38:38;97859.31;;;17.03;66.83
40850;BME280;26571;41.610;25.380;2023-01-19T09:41:13;97853.03;;;16.97;66.91
40850;BME280;26571;41.610;25.380;2023-01-19T09:43:42;97865.38;;;16.92;67.67
40850;BME280;26571;41.610;25.380;2023-01-19T09:46:16;97865.25;;;16.80;68.17
40850;BME280;26571;41.610;25.380;2023-01-19T09:48:56;97859.78;;;16.75;68.27
40850;BME280;26571;41.610;25.380;2023-01-19T09:51:33;97866.97;;;16.93;68.35
40850;BME280;26571;41.610;25.380;2023-01-19T09:54:11;97849.34;;;16.98;67.54
40850;BME280;26571;41.610;25.380;2023-01-19T09:56:39;97865.13;;;16.93;67.49
40850;BME280;26571;41.610;25.380;2023-01-19T10:04:39;97854.31;;;16.45;68.49
40850;BME280;26571;41.610;25.380;2023-01-19T10:07:15;97802.34;;;16.06;71.36
40850;BME280;26571;41.610;25.380;2023-01-19T10:17:59;97835.97;;;16.87;71.05
40850;BME280;26571;41.610;25.380;2023-01-19T10:20:34;97838.94;;;16.97;69.95
40850;BME280;26571;41.610;25.380;2023-01-19T10:23:04;97819.63;;;17.20;68.37
40850;BME280;26571;41.610;25.380;2023-01-19T10:25:37;97823.22;;;17.25;67.13
40850;BME280;26571;41.610;25.380;2023-01-19T10:28:03;97821.53;;;17.31;65.75
40850;BME280;26571;41.610;25.380;2023-01-19T10:30:29;97814.00;;;17.10;67.81
40850;BME280;26571;41.610;25.380;2023-01-19T10:32:54;97827.03;;;17.18;67.62
40850;BME280;26571;41.610;25.380;2023-01-19T10:35:22;97807.22;;;16.95;69.54
40850;BME280;26571;41.610;25.380;2023-01-19T10:37:55;97826.44;;;16.79;68.55
40850;BME280;26571;41.610;25.380;2023-01-19T10:40:36;97766.28;;;16.60;69.17
40850;BME280;26571;41.610;25.380;2023-01-19T10:45:58;97812.88;;;17.36;65.09
40850;BME280;26571;41.610;25.380;2023-01-19T10:48:24;97800.41;;;17.18;65.23
40850;BME280;26571;41.610;25.380;2023-01-19T10:51:00;97794.06;;;17.19;66.40
40850;BME280;26571;41.610;25.380;2023-01-19T10:53:27;97805.47;;;16.89;67.35
40850;BME280;26571;41.610;25.380;2023-01-19T10:56:14;97762.69;;;16.11;71.07
40850;BME280;26571;41.610;25.380;2023-01-19T10:58:41;97799.19;;;16.40;72.75
40850;BME280;26571;41.610;25.380;2023-01-19T11:03:37;97800.13;;;16.89;69.09
40850;BME280;26571;41.610;25.380;2023-01-19T11:06:27;97798.22;;;16.96;66.72
40850;BME280;26571;41.610;25.380;2023-01-19T11:09:08;97788.31;;;16.67;67.81
40850;BME280;26571;41.610;25.380;2023-01-19T11:11:41;97786.56;;;16.36;67.12
40850;BME280;26571;41.610;25.380;2023-01-19T11:14:13;97790.91;;;16.30;69.01
40850;BME280;26571;41.610;25.380;2023-01-19T11:16:40;97801.50;;;16.12;69.08
40850;BME280;26571;41.610;25.380;2023-01-19T11:19:22;97762.03;;;15.90;71.62
40850;BME280;26571;41.610;25.380;2023-01-19T11:21:48;97768.59;;;15.88;70.92
40850;BME280;26571;41.610;25.380;2023-01-19T11:24:14;97766.59;;;15.83;70.49
40850;BME280;26571;41.610;25.380;2023-01-19T11:26:44;97764.19;;;15.75;69.69
40850;BME280;26571;41.610;25.380;2023-01-19T11:29:18;97738.91;;;15.72;70.88
40850;BME280;26571;41.610;25.380;2023-01-19T11:31:44;97763.44;;;15.61;70.88
40850;BME280;26571;41.610;25.380;2023-01-19T11:37:05;97736.59;;;16.08;67.19
40850;BME280;26571;41.610;25.380;2023-01-19T11:39:44;97741.63;;;16.34;65.30
40850;BME280;26571;41.610;25.380;2023-01-19T11:42:11;97744.66;;;16.38;63.89
40850;BME280;26571;41.610;25.380;2023-01-19T11:47:41;97721.06;;;16.48;64.79
40850;BME280;26571;41.610;25.380;2023-01-19T11:50:30;97732.34;;;16.62;65.02
40850;BME280;26571;41.610;25.380;2023-01-19T11:53:20;97716.25;;;16.57;64.75
40850;BME280;26571;41.610;25.380;2023-01-19T11:55:55;97715.66;;;16.54;64.93
40850;BME280;26571;41.610;25.380;2023-01-19T11:58:23;97686.38;;;16.43;64.37
40850;BME280;26571;41.610;25.380;2023-01-19T12:04:03;97680.16;;;16.12;64.64
40850;BME280;26571;41.610;25.380;2023-01-19T12:06:33;97659.44;;;16.02;64.96
40850;BME280;26571;41.610;25.380;2023-01-19T12:09:10;97680.81;;;16.26;64.70
40850;BME280;26571;41.610;25.380;2023-01-19T12:11:53;97641.72;;;16.15;65.02
40850;BME280;26571;41.610;25.380;2023-01-19T12:14:27;97663.56;;;15.98;66.12
40850;BME280;26571;41.610;25.380;2023-01-19T12:16:59;97618.13;;;15.88;65.56
40850;BME280;26571;41.610;25.380;2023-01-19T12:19:38;97689.91;;;16.18;65.28
40850;BME280;26571;41.610;25.380;2023-01-19T12:22:07;97676.25;;;16.33;64.81
40850;BME280;26571;41.610;25.380;2023-01-19T12:24:40;97686.00;;;16.39;64.83
40850;BME280;26571;41.610;25.380;2023-01-19T12:27:41;97680.00;;;16.25;65.20
40850;BME280;26571;41.610;25.380;2023-01-19T12:30:23;97644.38;;;15.96;64.95
40850;BME280;26571;41.610;25.380;2023-01-19T12:32:49;97664.50;;;16.04;65.76
40850;BME280;26571;41.610;25.380;2023-01-19T12:41:27;97710.63;;;16.28;64.00
40850;BME280;26571;41.610;25.380;2023-01-19T12:58:13;97639.72;;;16.10;64.76
40850;BME280;26571;41.610;25.380;2023-01-19T13:00:43;97717.44;;;15.99;63.13
40850;BME280;26571;41.610;25.380;2023-01-19T13:13:26;97717.38;;;16.06;64.22
40850;BME280;26571;41.610;25.380;2023-01-19T13:15:54;97709.41;;;16.06;64.70
40850;BME280;26571;41.610;25.380;2023-01-19T13:18:31;97720.06;;;16.24;62.98
40850;BME280;26571;41.610;25.380;2023-01-19T13:21:04;97714.47;;;16.14;64.26
40850;BME280;26571;41.610;25.380;2023-01-19T13:26:17;97757.00;;;15.82;65.38
40850;BME280;26571;41.610;25.380;2023-01-19T13:28:45;97722.63;;;15.62;66.48
40850;BME280;26571;41.610;25.380;2023-01-19T13:31:13;97716.13;;;15.58;67.20
40850;BME280;26571;41.610;25.380;2023-01-19T13:33:51;97736.09;;;15.61;66.88
40850;BME280;26571;41.610;25.380;2023-01-19T13:36:25;97739.78;;;15.66;66.96
40850;BME280;26571;41.610;25.380;2023-01-19T13:38:53;97713.72;;;15.57;67.72
40850;BME280;26571;41.610;25.380;2023-01-19T13:41:22;97751.84;;;15.56;68.19
40850;BME280;26571;41.610;25.380;2023-01-19T13:43:55;97722.31;;;15.52;67.44
40850;BME280;26571;41.610;25.380;2023-01-19T13:46:23;97733.56;;;15.47;68.33
40850;BME280;26571;41.610;25.380;2023-01-19T13:48:56;97741.47;;;15.54;68.98
40850;BME280;26571;41.610;25.380;2023-01-19T13:51:23;97739.78;;;15.60;68.14
40850;BME280;26571;41.610;25.380;2023-01-19T13:53:58;97752.50;;;15.51;68.16
40850;BME280;26571;41.610;25.380;2023-01-19T13:56:26;97724.41;;;15.43;67.90
40850;BME280;26571;41.610;25.380;2023-01-19T13:59:00;97729.53;;;15.38;67.63
40850;BME280;26571;41.610;25.380;2023-01-19T14:01:26;97746.97;;;15.21;67.95
40850;BME280;26571;41.610;25.380;2023-01-19T14:03:52;97743.50;;;15.27;68.44
40850;BME280;26571;41.610;25.380;2023-01-19T14:06:40;97737.97;;;15.29;69.03
40850;BME280;26571;41.610;25.380;2023-01-19T14:09:18;97742.28;;;15.23;69.18
40850;BME280;26571;41.610;25.380;2023-01-19T14:11:45;97701.00;;;15.02;69.95
40850;BME280;26571;41.610;25.380;2023-01-19T14:14:30;97735.84;;;15.06;70.23
40850;BME280;26571;41.610;25.380;2023-01-19T14:16:55;97736.47;;;15.01;70.07
40850;BME280;26571;41.610;25.380;2023-01-19T14:19:21;97736.09;;;14.97;70.38